sensor_id;sensor_type;location;lat;lon;timestamp;P1;durP1;ratioP1;P2;durP2;ratioP2
17953;SDS011;9102;53.548;9.926;2024-01-16T00:00:39;8.35;;;4.57;;
17953;SDS011;9102;53.548;9.926;2024-01-16T00:03:06;8.90;;;5.25;;
17953;SDS011;9102;53.548;9.926;2024-01-16T00:05:32;9.35;;;5.47;;
17953;SDS011;9102;53.548;9.926;2024-01-16T00:08:00;12.15;;;5.80;;
17953;SDS011;9102;53.548;9.926;2024-01-16T00:10:27;14.95;;;5.68;;
17953;SDS011;9102;53.548;9.926;2024-01-16T00:12:54;11.15;;;6.10;;
17953;SDS011;9102;53.548;9.926;2024-01-16T00:15:21;11.35;;;6.00;;
17953;SDS011;9102;53.548;9.926;2024-01-16T00:17:48;9.52;;;5.60;;
17953;SDS011;9102;53.548;9.926;2024-01-16T00:20:16;12.25;;;5.75;;
17953;SDS011;9102;53.548;9.926;2024-01-16T00:22:43;9.63;;;5.97;;
17953;SDS011;9102;53.548;9.926;2024-01-16T00:25:11;14.40;;;6.00;;
17953;SDS011;9102;53.548;9.926;2024-01-16T00:27:38;11.68;;;6.03;;
17953;SDS011;9102;53.548;9.926;2024-01-16T00:30:05;10.30;;;5.72;;
17953;SDS011;9102;53.548;9.926;2024-01-16T00:32:32;14.68;;;6.28;;
17953;SDS011;9102;53.548;9.926;2024-01-16T00:34:59;11.35;;;6.10;;
17953;SDS011;9102;53.548;9.926;2024-01-16T00:37:26;13.98;;;6.47;;
17953;SDS011;9102;53.548;9.926;2024-01-16T00:39:53;15.23;;;7.28;;
17953;SDS011;9102;53.548;9.926;2024-01-16T00:42:21;17.10;;;7.77;;
17953;SDS011;9102;53.548;9.926;2024-01-16T00:44:48;11.93;;;7.03;;
17953;SDS011;9102;53.548;9.926;2024-01-16T00:47:15;12.00;;;6.93;;
17953;SDS011;9102;53.548;9.926;2024-01-16T00:49:41;10.88;;;6.50;;
17953;SDS011;9102;53.548;9.926;2024-01-16T00:52:08;16.27;;;7.25;;
17953;SDS011;9102;53.548;9.926;2024-01-16T00:54:36;15.15;;;7.80;;
17953;SDS011;9102;53.548;9.926;2024-01-16T00:57:03;13.52;;;6.20;;
17953;SDS011;9102;53.548;9.926;2024-01-16T00:59:32;12.60;;;6.85;;
17953;SDS011;9102;53.548;9.926;2024-01-16T01:01:58;10.50;;;5.90;;
17953;SDS011;9102;53.548;9.926;2024-01-16T01:04:25;13.35;;;6.22;;
17953;SDS011;9102;53.548;9.926;2024-01-16T01:06:52;12.40;;;5.95;;
17953;SDS011;9102;53.548;9.926;2024-01-16T01:09:19;11.23;;;6.20;;
17953;SDS011;9102;53.548;9.926;2024-01-16T01:11:46;9.75;;;5.95;;
17953;SDS011;9102;53.548;9.926;2024-01-16T01:14:13;14.50;;;6.10;;
17953;SDS011;9102;53.548;9.926;2024-01-16T01:16:41;12.32;;;5.75;;
17953;SDS011;9102;53.548;9.926;2024-01-16T01:19:08;9.10;;;5.47;;
17953;SDS011;9102;53.548;9.926;2024-01-16T01:21:35;9.80;;;5.53;;
17953;SDS011;9102;53.548;9.926;2024-01-16T01:24:02;9.18;;;5.40;;
17953;SDS011;9102;53.548;9.926;2024-01-16T01:26:29;8.38;;;5.30;;
17953;SDS011;9102;53.548;9.926;2024-01-16T01:28:55;14.43;;;6.47;;
17953;SDS011;9102;53.548;9.926;2024-01-16T01:31:22;10.60;;;5.88;;
17953;SDS011;9102;53.548;9.926;2024-01-16T01:33:51;12.50;;;6.10;;
17953;SDS011;9102;53.548;9.926;2024-01-16T01:36:17;10.15;;;5.90;;
17953;SDS011;9102;53.548;9.926;2024-01-16T01:38:44;9.48;;;5.47;;
17953;SDS011;9102;53.548;9.926;2024-01-16T01:41:11;10.05;;;6.03;;
17953;SDS011;9102;53.548;9.926;2024-01-16T01:43:38;11.60;;;5.93;;
17953;SDS011;9102;53.548;9.926;2024-01-16T01:46:09;13.05;;;6.47;;
17953;SDS011;9102;53.548;9.926;2024-01-16T01:48:37;12.18;;;6.07;;
17953;SDS011;9102;53.548;9.926;2024-01-16T01:51:07;10.43;;;5.40;;
17953;SDS011;9102;53.548;9.926;2024-01-16T01:53:34;9.45;;;5.30;;
17953;SDS011;9102;53.548;9.926;2024-01-16T01:56:03;11.75;;;5.72;;
17953;SDS011;9102;53.548;9.926;2024-01-16T01:58:32;10.10;;;5.35;;
17953;SDS011;9102;53.548;9.926;2024-01-16T02:01:00;12.82;;;5.70;;
17953;SDS011;9102;53.548;9.926;2024-01-16T02:03:27;10.43;;;6.18;;
17953;SDS011;9102;53.548;9.926;2024-01-16T02:05:56;12.40;;;6.28;;
17953;SDS011;9102;53.548;9.926;2024-01-16T02:08:24;9.82;;;6.57;;
17953;SDS011;9102;53.548;9.926;2024-01-16T02:10:51;14.75;;;7.05;;
17953;SDS011;9102;53.548;9.926;2024-01-16T02:13:18;13.63;;;6.65;;
17953;SDS011;9102;53.548;9.926;2024-01-16T02:15:48;16.90;;;7.15;;
17953;SDS011;9102;53.548;9.926;2024-01-16T02:18:15;12.85;;;7.15;;
17953;SDS011;9102;53.548;9.926;2024-01-16T02:20:42;12.68;;;7.28;;
17953;SDS011;9102;53.548;9.926;2024-01-16T02:23:10;14.77;;;7.43;;
17953;SDS011;9102;53.548;9.926;2024-01-16T02:25:39;18.98;;;8.93;;
17953;SDS011;9102;53.548;9.926;2024-01-16T02:28:07;18.70;;;8.57;;
17953;SDS011;9102;53.548;9.926;2024-01-16T02:30:34;15.57;;;8.38;;
17953;SDS011;9102;53.548;9.926;2024-01-16T02:33:01;17.92;;;8.75;;
17953;SDS011;9102;53.548;9.926;2024-01-16T02:35:28;16.00;;;9.02;;
17953;SDS011;9102;53.548;9.926;2024-01-16T02:37:55;15.77;;;8.63;;
17953;SDS011;9102;53.548;9.926;2024-01-16T02:40:22;18.90;;;10.13;;
17953;SDS011;9102;53.548;9.926;2024-01-16T02:42:50;20.48;;;11.27;;
17953;SDS011;9102;53.548;9.926;2024-01-16T02:45:17;19.80;;;10.30;;
17953;SDS011;9102;53.548;9.926;2024-01-16T02:47:44;21.00;;;11.32;;
17953;SDS011;9102;53.548;9.926;2024-01-16T02:50:11;22.10;;;10.68;;
17953;SDS011;9102;53.548;9.926;2024-01-16T02:52:38;18.88;;;9.88;;
17953;SDS011;9102;53.548;9.926;2024-01-16T02:55:06;19.05;;;10.13;;
17953;SDS011;9102;53.548;9.926;2024-01-16T02:57:34;17.30;;;9.43;;
17953;SDS011;9102;53.548;9.926;2024-01-16T03:00:02;22.00;;;10.00;;
17953;SDS011;9102;53.548;9.926;2024-01-16T03:02:30;19.40;;;9.90;;
17953;SDS011;9102;53.548;9.926;2024-01-16T03:04:57;21.00;;;10.38;;
17953;SDS011;9102;53.548;9.926;2024-01-16T03:07:24;16.38;;;9.63;;
17953;SDS011;9102;53.548;9.926;2024-01-16T03:09:50;19.88;;;9.75;;
17953;SDS011;9102;53.548;9.926;2024-01-16T03:12:17;17.45;;;9.10;;
17953;SDS011;9102;53.548;9.926;2024-01-16T03:14:44;19.65;;;10.02;;
17953;SDS011;9102;53.548;9.926;2024-01-16T03:17:12;18.00;;;9.02;;
17953;SDS011;9102;53.548;9.926;2024-01-16T03:19:39;18.83;;;9.50;;
17953;SDS011;9102;53.548;9.926;2024-01-16T03:22:06;16.60;;;8.23;;
17953;SDS011;9102;53.548;9.926;2024-01-16T03:24:33;17.90;;;9.75;;
17953;SDS011;9102;53.548;9.926;2024-01-16T03:26:59;18.45;;;9.80;;
17953;SDS011;9102;53.548;9.926;2024-01-16T03:29:26;19.50;;;9.98;;
17953;SDS011;9102;53.548;9.926;2024-01-16T03:31:53;16.02;;;9.07;;
17953;SDS011;9102;53.548;9.926;2024-01-16T03:34:23;24.02;;;10.55;;
17953;SDS011;9102;53.548;9.926;2024-01-16T03:36:50;26.88;;;9.88;;
17953;SDS011;9102;53.548;9.926;2024-01-16T03:39:17;17.27;;;9.52;;
17953;SDS011;9102;53.548;9.926;2024-01-16T03:41:43;19.88;;;9.52;;
17953;SDS011;9102;53.548;9.926;2024-01-16T03:44:10;20.48;;;10.45;;
17953;SDS011;9102;53.548;9.926;2024-01-16T03:46:37;18.23;;;9.98;;
17953;SDS011;9102;53.548;9.926;2024-01-16T03:49:04;20.95;;;10.30;;
17953;SDS011;9102;53.548;9.926;2024-01-16T03:51:32;19.15;;;9.85;;
17953;SDS011;9102;53.548;9.926;2024-01-16T03:53:59;19.88;;;10.20;;
17953;SDS011;9102;53.548;9.926;2024-01-16T03:56:25;21.98;;;10.43;;
17953;SDS011;9102;53.548;9.926;2024-01-16T03:58:52;23.45;;;10.85;;
17953;SDS011;9102;53.548;9.926;2024-01-16T04:01:29;21.85;;;11.02;;
17953;SDS011;9102;53.548;9.926;2024-01-16T04:03:56;22.10;;;10.98;;
17953;SDS011;9102;53.548;9.926;2024-01-16T04:06:23;22.02;;;11.20;;
17953;SDS011;9102;53.548;9.926;2024-01-16T04:08:52;24.35;;;11.00;;
17953;SDS011;9102;53.548;9.926;2024-01-16T04:11:19;19.92;;;11.05;;
17953;SDS011;9102;53.548;9.926;2024-01-16T04:13:46;25.38;;;10.68;;
17953;SDS011;9102;53.548;9.926;2024-01-16T04:16:13;23.98;;;11.82;;
17953;SDS011;9102;53.548;9.926;2024-01-16T04:18:40;24.40;;;11.32;;
17953;SDS011;9102;53.548;9.926;2024-01-16T04:21:08;23.20;;;10.15;;
17953;SDS011;9102;53.548;9.926;2024-01-16T04:23:34;26.42;;;12.50;;
17953;SDS011;9102;53.548;9.926;2024-01-16T04:26:03;21.55;;;10.85;;
17953;SDS011;9102;53.548;9.926;2024-01-16T04:28:30;19.40;;;10.55;;
17953;SDS011;9102;53.548;9.926;2024-01-16T04:30:56;18.48;;;10.40;;
17953;SDS011;9102;53.548;9.926;2024-01-16T04:33:23;21.20;;;10.40;;
17953;SDS011;9102;53.548;9.926;2024-01-16T04:35:50;20.77;;;10.82;;
17953;SDS011;9102;53.548;9.926;2024-01-16T04:38:17;19.15;;;9.70;;
17953;SDS011;9102;53.548;9.926;2024-01-16T04:40:44;32.92;;;10.05;;
17953;SDS011;9102;53.548;9.926;2024-01-16T04:43:12;18.58;;;8.70;;
17953;SDS011;9102;53.548;9.926;2024-01-16T04:45:39;15.57;;;8.10;;
17953;SDS011;9102;53.548;9.926;2024-01-16T04:48:06;12.70;;;7.65;;
17953;SDS011;9102;53.548;9.926;2024-01-16T04:50:33;16.10;;;7.43;;
17953;SDS011;9102;53.548;9.926;2024-01-16T04:53:00;18.02;;;7.72;;
17953;SDS011;9102;53.548;9.926;2024-01-16T04:55:27;14.13;;;7.22;;
17953;SDS011;9102;53.548;9.926;2024-01-16T04:57:55;12.43;;;6.97;;
17953;SDS011;9102;53.548;9.926;2024-01-16T05:00:24;17.02;;;7.20;;
17953;SDS011;9102;53.548;9.926;2024-01-16T05:02:50;13.82;;;6.35;;
17953;SDS011;9102;53.548;9.926;2024-01-16T05:05:17;10.82;;;5.80;;
17953;SDS011;9102;53.548;9.926;2024-01-16T05:07:44;11.13;;;5.63;;
17953;SDS011;9102;53.548;9.926;2024-01-16T05:10:11;12.68;;;5.85;;
17953;SDS011;9102;53.548;9.926;2024-01-16T05:12:38;10.52;;;5.72;;
17953;SDS011;9102;53.548;9.926;2024-01-16T05:15:06;10.02;;;4.82;;
17953;SDS011;9102;53.548;9.926;2024-01-16T05:17:35;12.27;;;5.57;;
17953;SDS011;9102;53.548;9.926;2024-01-16T05:20:03;12.13;;;5.43;;
17953;SDS011;9102;53.548;9.926;2024-01-16T05:22:30;9.80;;;4.85;;
17953;SDS011;9102;53.548;9.926;2024-01-16T05:24:57;9.00;;;3.70;;
17953;SDS011;9102;53.548;9.926;2024-01-16T05:27:25;9.27;;;3.45;;
17953;SDS011;9102;53.548;9.926;2024-01-16T05:29:51;10.20;;;3.70;;
17953;SDS011;9102;53.548;9.926;2024-01-16T05:32:18;8.65;;;3.17;;
17953;SDS011;9102;53.548;9.926;2024-01-16T05:34:46;7.65;;;2.97;;
17953;SDS011;9102;53.548;9.926;2024-01-16T05:37:13;7.80;;;2.85;;
17953;SDS011;9102;53.548;9.926;2024-01-16T05:39:40;5.32;;;2.53;;
17953;SDS011;9102;53.548;9.926;2024-01-16T05:42:07;5.45;;;2.40;;
17953;SDS011;9102;53.548;9.926;2024-01-16T05:44:34;4.65;;;2.47;;
17953;SDS011;9102;53.548;9.926;2024-01-16T05:47:01;3.03;;;1.80;;
17953;SDS011;9102;53.548;9.926;2024-01-16T05:49:30;5.43;;;1.90;;
17953;SDS011;9102;53.548;9.926;2024-01-16T05:51:59;7.15;;;3.47;;
17953;SDS011;9102;53.548;9.926;2024-01-16T05:54:25;7.32;;;2.40;;
17953;SDS011;9102;53.548;9.926;2024-01-16T05:56:53;2.88;;;1.70;;
17953;SDS011;9102;53.548;9.926;2024-01-16T05:59:20;3.45;;;1.73;;
17953;SDS011;9102;53.548;9.926;2024-01-16T06:01:47;3.45;;;1.67;;
17953;SDS011;9102;53.548;9.926;2024-01-16T06:04:15;3.17;;;1.48;;
17953;SDS011;9102;53.548;9.926;2024-01-16T06:06:42;5.22;;;1.83;;
17953;SDS011;9102;53.548;9.926;2024-01-16T06:09:13;3.95;;;2.05;;
17953;SDS011;9102;53.548;9.926;2024-01-16T06:11:40;5.78;;;2.13;;
17953;SDS011;9102;53.548;9.926;2024-01-16T06:14:07;8.27;;;2.10;;
17953;SDS011;9102;53.548;9.926;2024-01-16T06:16:34;5.18;;;2.60;;
17953;SDS011;9102;53.548;9.926;2024-01-16T06:19:01;8.10;;;2.03;;
17953;SDS011;9102;53.548;9.926;2024-01-16T06:21:29;4.43;;;2.00;;
17953;SDS011;9102;53.548;9.926;2024-01-16T06:23:56;7.38;;;2.80;;
17953;SDS011;9102;53.548;9.926;2024-01-16T06:26:25;7.38;;;3.20;;
17953;SDS011;9102;53.548;9.926;2024-01-16T06:28:51;5.82;;;2.35;;
17953;SDS011;9102;53.548;9.926;2024-01-16T06:31:18;10.38;;;2.70;;
17953;SDS011;9102;53.548;9.926;2024-01-16T06:33:45;5.93;;;2.45;;
17953;SDS011;9102;53.548;9.926;2024-01-16T06:36:12;7.13;;;2.30;;
17953;SDS011;9102;53.548;9.926;2024-01-16T06:38:38;6.22;;;3.00;;
17953;SDS011;9102;53.548;9.926;2024-01-16T06:41:06;7.63;;;2.75;;
17953;SDS011;9102;53.548;9.926;2024-01-16T06:43:34;8.65;;;2.72;;
17953;SDS011;9102;53.548;9.926;2024-01-16T06:46:01;7.80;;;3.22;;
17953;SDS011;9102;53.548;9.926;2024-01-16T06:48:28;9.18;;;2.35;;
17953;SDS011;9102;53.548;9.926;2024-01-16T06:50:55;10.25;;;3.17;;
17953;SDS011;9102;53.548;9.926;2024-01-16T06:53:22;8.55;;;2.83;;
17953;SDS011;9102;53.548;9.926;2024-01-16T06:55:49;11.13;;;3.25;;
17953;SDS011;9102;53.548;9.926;2024-01-16T06:58:16;8.23;;;3.10;;
17953;SDS011;9102;53.548;9.926;2024-01-16T07:00:44;11.27;;;3.50;;
17953;SDS011;9102;53.548;9.926;2024-01-16T07:03:12;5.43;;;2.28;;
17953;SDS011;9102;53.548;9.926;2024-01-16T07:05:39;10.73;;;3.10;;
17953;SDS011;9102;53.548;9.926;2024-01-16T07:08:06;7.63;;;2.80;;
17953;SDS011;9102;53.548;9.926;2024-01-16T07:10:33;10.68;;;3.13;;
17953;SDS011;9102;53.548;9.926;2024-01-16T07:13:00;10.32;;;2.80;;
17953;SDS011;9102;53.548;9.926;2024-01-16T07:15:28;9.82;;;3.03;;
17953;SDS011;9102;53.548;9.926;2024-01-16T07:17:56;12.13;;;3.67;;
17953;SDS011;9102;53.548;9.926;2024-01-16T07:20:23;7.47;;;2.78;;
17953;SDS011;9102;53.548;9.926;2024-01-16T07:22:50;9.20;;;3.13;;
17953;SDS011;9102;53.548;9.926;2024-01-16T07:25:16;9.15;;;3.38;;
17953;SDS011;9102;53.548;9.926;2024-01-16T07:27:43;10.27;;;3.03;;
17953;SDS011;9102;53.548;9.926;2024-01-16T07:30:13;7.35;;;2.90;;
17953;SDS011;9102;53.548;9.926;2024-01-16T07:32:40;11.63;;;2.70;;
17953;SDS011;9102;53.548;9.926;2024-01-16T07:35:09;10.40;;;3.30;;
17953;SDS011;9102;53.548;9.926;2024-01-16T07:37:36;9.88;;;3.38;;
17953;SDS011;9102;53.548;9.926;2024-01-16T07:40:03;14.38;;;3.58;;
17953;SDS011;9102;53.548;9.926;2024-01-16T07:42:31;7.78;;;4.38;;
17953;SDS011;9102;53.548;9.926;2024-01-16T07:44:59;9.68;;;3.38;;
17953;SDS011;9102;53.548;9.926;2024-01-16T07:47:29;6.05;;;2.92;;
17953;SDS011;9102;53.548;9.926;2024-01-16T07:49:56;5.63;;;3.42;;
17953;SDS011;9102;53.548;9.926;2024-01-16T07:52:24;10.15;;;3.58;;
17953;SDS011;9102;53.548;9.926;2024-01-16T07:54:51;8.02;;;3.42;;
17953;SDS011;9102;53.548;9.926;2024-01-16T07:57:17;15.13;;;4.28;;
17953;SDS011;9102;53.548;9.926;2024-01-16T07:59:44;14.02;;;4.10;;
17953;SDS011;9102;53.548;9.926;2024-01-16T08:02:11;11.65;;;4.40;;
17953;SDS011;9102;53.548;9.926;2024-01-16T08:04:38;13.30;;;4.45;;
17953;SDS011;9102;53.548;9.926;2024-01-16T08:07:04;12.10;;;4.40;;
17953;SDS011;9102;53.548;9.926;2024-01-16T08:09:33;8.02;;;3.88;;
17953;SDS011;9102;53.548;9.926;2024-01-16T08:12:00;14.60;;;4.00;;
17953;SDS011;9102;53.548;9.926;2024-01-16T08:14:27;7.13;;;3.60;;
17953;SDS011;9102;53.548;9.926;2024-01-16T08:16:54;12.18;;;4.40;;
17953;SDS011;9102;53.548;9.926;2024-01-16T08:19:21;11.60;;;4.22;;
17953;SDS011;9102;53.548;9.926;2024-01-16T08:21:48;14.88;;;5.03;;
17953;SDS011;9102;53.548;9.926;2024-01-16T08:24:14;12.27;;;4.78;;
17953;SDS011;9102;53.548;9.926;2024-01-16T08:26:43;15.75;;;5.22;;
17953;SDS011;9102;53.548;9.926;2024-01-16T08:29:09;17.13;;;5.18;;
17953;SDS011;9102;53.548;9.926;2024-01-16T08:31:36;15.13;;;5.10;;
17953;SDS011;9102;53.548;9.926;2024-01-16T08:34:03;12.00;;;4.68;;
17953;SDS011;9102;53.548;9.926;2024-01-16T08:36:30;9.50;;;4.60;;
17953;SDS011;9102;53.548;9.926;2024-01-16T08:38:56;9.60;;;4.15;;
17953;SDS011;9102;53.548;9.926;2024-01-16T08:41:23;15.95;;;5.13;;
17953;SDS011;9102;53.548;9.926;2024-01-16T08:43:51;15.50;;;4.57;;
17953;SDS011;9102;53.548;9.926;2024-01-16T08:46:19;10.85;;;4.30;;
17953;SDS011;9102;53.548;9.926;2024-01-16T08:48:46;9.88;;;4.25;;
17953;SDS011;9102;53.548;9.926;2024-01-16T08:51:13;15.23;;;5.78;;
17953;SDS011;9102;53.548;9.926;2024-01-16T08:53:40;11.45;;;5.07;;
17953;SDS011;9102;53.548;9.926;2024-01-16T08:56:07;16.05;;;5.10;;
17953;SDS011;9102;53.548;9.926;2024-01-16T08:58:33;10.82;;;4.40;;
17953;SDS011;9102;53.548;9.926;2024-01-16T09:01:04;11.23;;;4.88;;
17953;SDS011;9102;53.548;9.926;2024-01-16T09:03:31;12.45;;;4.60;;
17953;SDS011;9102;53.548;9.926;2024-01-16T09:05:58;9.35;;;4.25;;
17953;SDS011;9102;53.548;9.926;2024-01-16T09:08:25;13.20;;;5.18;;
17953;SDS011;9102;53.548;9.926;2024-01-16T09:10:52;8.13;;;4.97;;
17953;SDS011;9102;53.548;9.926;2024-01-16T09:13:19;15.00;;;5.22;;
17953;SDS011;9102;53.548;9.926;2024-01-16T09:15:47;13.35;;;4.97;;
17953;SDS011;9102;53.548;9.926;2024-01-16T09:18:16;13.05;;;5.93;;
17953;SDS011;9102;53.548;9.926;2024-01-16T09:20:43;13.50;;;4.68;;
17953;SDS011;9102;53.548;9.926;2024-01-16T09:23:10;15.40;;;5.07;;
17953;SDS011;9102;53.548;9.926;2024-01-16T09:25:37;16.70;;;4.55;;
17953;SDS011;9102;53.548;9.926;2024-01-16T09:28:04;8.07;;;4.13;;
17953;SDS011;9102;53.548;9.926;2024-01-16T09:30:32;16.65;;;4.93;;
17953;SDS011;9102;53.548;9.926;2024-01-16T09:32:59;14.50;;;3.70;;
17953;SDS011;9102;53.548;9.926;2024-01-16T09:35:27;12.18;;;4.25;;
17953;SDS011;9102;53.548;9.926;2024-01-16T09:37:54;12.38;;;3.28;;
17953;SDS011;9102;53.548;9.926;2024-01-16T09:40:21;10.57;;;3.40;;
17953;SDS011;9102;53.548;9.926;2024-01-16T09:42:48;9.02;;;2.70;;
17953;SDS011;9102;53.548;9.926;2024-01-16T09:45:15;7.05;;;2.67;;
17953;SDS011;9102;53.548;9.926;2024-01-16T09:47:46;7.28;;;2.80;;
17953;SDS011;9102;53.548;9.926;2024-01-16T09:50:15;11.75;;;2.50;;
17953;SDS011;9102;53.548;9.926;2024-01-16T09:52:44;7.43;;;2.50;;
17953;SDS011;9102;53.548;9.926;2024-01-16T09:55:12;15.25;;;3.00;;
17953;SDS011;9102;53.548;9.926;2024-01-16T09:57:39;9.68;;;2.60;;
17953;SDS011;9102;53.548;9.926;2024-01-16T10:00:07;9.48;;;2.78;;
17953;SDS011;9102;53.548;9.926;2024-01-16T10:02:37;12.65;;;2.50;;
17953;SDS011;9102;53.548;9.926;2024-01-16T10:05:05;10.15;;;2.47;;
17953;SDS011;9102;53.548;9.926;2024-01-16T10:07:33;9.75;;;2.25;;
17953;SDS011;9102;53.548;9.926;2024-01-16T10:10:02;7.70;;;1.90;;
17953;SDS011;9102;53.548;9.926;2024-01-16T10:12:29;8.50;;;2.55;;
17953;SDS011;9102;53.548;9.926;2024-01-16T10:14:57;7.82;;;2.53;;
17953;SDS011;9102;53.548;9.926;2024-01-16T10:17:35;7.47;;;1.73;;
17953;SDS011;9102;53.548;9.926;2024-01-16T10:20:03;8.23;;;2.22;;
17953;SDS011;9102;53.548;9.926;2024-01-16T10:22:30;10.13;;;2.33;;
17953;SDS011;9102;53.548;9.926;2024-01-16T10:25:08;9.38;;;2.05;;
17953;SDS011;9102;53.548;9.926;2024-01-16T10:27:38;9.23;;;2.35;;
17953;SDS011;9102;53.548;9.926;2024-01-16T10:30:06;9.32;;;2.30;;
17953;SDS011;9102;53.548;9.926;2024-01-16T10:32:34;11.02;;;2.05;;
17953;SDS011;9102;53.548;9.926;2024-01-16T10:35:03;4.47;;;2.40;;
17953;SDS011;9102;53.548;9.926;2024-01-16T10:37:30;7.30;;;1.95;;
17953;SDS011;9102;53.548;9.926;2024-01-16T10:40:08;8.65;;;2.33;;
17953;SDS011;9102;53.548;9.926;2024-01-16T10:42:36;6.22;;;1.92;;
17953;SDS011;9102;53.548;9.926;2024-01-16T10:45:05;5.63;;;2.22;;
17953;SDS011;9102;53.548;9.926;2024-01-16T10:47:32;6.47;;;1.90;;
17953;SDS011;9102;53.548;9.926;2024-01-16T10:50:02;6.00;;;1.90;;
17953;SDS011;9102;53.548;9.926;2024-01-16T10:52:31;6.75;;;1.80;;
17953;SDS011;9102;53.548;9.926;2024-01-16T10:55:00;10.88;;;1.98;;
17953;SDS011;9102;53.548;9.926;2024-01-16T10:57:34;5.47;;;1.73;;
17953;SDS011;9102;53.548;9.926;2024-01-16T11:00:04;4.63;;;1.50;;
17953;SDS011;9102;53.548;9.926;2024-01-16T11:02:38;10.73;;;1.80;;
17953;SDS011;9102;53.548;9.926;2024-01-16T11:05:09;15.68;;;2.50;;
17953;SDS011;9102;53.548;9.926;2024-01-16T11:07:38;13.32;;;1.95;;
17953;SDS011;9102;53.548;9.926;2024-01-16T11:10:06;8.25;;;2.63;;
17953;SDS011;9102;53.548;9.926;2024-01-16T11:12:36;8.05;;;2.45;;
17953;SDS011;9102;53.548;9.926;2024-01-16T11:15:04;12.00;;;2.92;;
17953;SDS011;9102;53.548;9.926;2024-01-16T11:17:33;12.20;;;2.03;;
17953;SDS011;9102;53.548;9.926;2024-01-16T11:20:01;10.40;;;1.77;;
17953;SDS011;9102;53.548;9.926;2024-01-16T11:22:31;5.97;;;1.88;;
17953;SDS011;9102;53.548;9.926;2024-01-16T11:25:08;7.80;;;2.22;;
17953;SDS011;9102;53.548;9.926;2024-01-16T11:27:37;14.10;;;2.10;;
17953;SDS011;9102;53.548;9.926;2024-01-16T11:30:05;7.28;;;1.60;;
17953;SDS011;9102;53.548;9.926;2024-01-16T11:32:33;6.00;;;1.92;;
17953;SDS011;9102;53.548;9.926;2024-01-16T11:35:01;10.18;;;2.70;;
17953;SDS011;9102;53.548;9.926;2024-01-16T11:37:28;7.57;;;1.73;;
17953;SDS011;9102;53.548;9.926;2024-01-16T11:42:51;8.80;;;2.38;;
17953;SDS011;9102;53.548;9.926;2024-01-16T11:48:15;8.82;;;2.33;;
17953;SDS011;9102;53.548;9.926;2024-01-16T11:50:43;10.20;;;2.20;;
17953;SDS011;9102;53.548;9.926;2024-01-16T11:53:10;10.98;;;2.15;;
17953;SDS011;9102;53.548;9.926;2024-01-16T11:55:41;10.07;;;2.38;;
17953;SDS011;9102;53.548;9.926;2024-01-16T11:58:25;8.73;;;1.83;;
17953;SDS011;9102;53.548;9.926;2024-01-16T12:01:03;5.47;;;1.55;;
17953;SDS011;9102;53.548;9.926;2024-01-16T12:03:32;11.10;;;2.00;;
17953;SDS011;9102;53.548;9.926;2024-01-16T12:05:59;8.25;;;2.03;;
17953;SDS011;9102;53.548;9.926;2024-01-16T12:08:25;9.20;;;1.80;;
17953;SDS011;9102;53.548;9.926;2024-01-16T12:10:53;5.57;;;2.13;;
17953;SDS011;9102;53.548;9.926;2024-01-16T12:13:20;5.07;;;1.77;;
17953;SDS011;9102;53.548;9.926;2024-01-16T12:15:58;11.10;;;1.52;;
17953;SDS011;9102;53.548;9.926;2024-01-16T12:18:26;12.00;;;2.33;;
17953;SDS011;9102;53.548;9.926;2024-01-16T12:20:53;9.75;;;2.45;;
17953;SDS011;9102;53.548;9.926;2024-01-16T12:23:20;5.82;;;1.73;;
17953;SDS011;9102;53.548;9.926;2024-01-16T12:25:51;16.30;;;3.08;;
17953;SDS011;9102;53.548;9.926;2024-01-16T12:28:19;12.68;;;2.42;;
17953;SDS011;9102;53.548;9.926;2024-01-16T12:30:50;9.95;;;2.10;;
17953;SDS011;9102;53.548;9.926;2024-01-16T12:33:20;12.20;;;2.28;;
17953;SDS011;9102;53.548;9.926;2024-01-16T12:35:48;8.93;;;1.90;;
17953;SDS011;9102;53.548;9.926;2024-01-16T12:38:15;8.02;;;2.47;;
17953;SDS011;9102;53.548;9.926;2024-01-16T12:40:44;7.13;;;2.58;;
17953;SDS011;9102;53.548;9.926;2024-01-16T12:43:15;5.93;;;2.10;;
17953;SDS011;9102;53.548;9.926;2024-01-16T12:45:43;7.32;;;2.17;;
17953;SDS011;9102;53.548;9.926;2024-01-16T12:48:12;8.52;;;2.30;;
17953;SDS011;9102;53.548;9.926;2024-01-16T12:50:39;4.15;;;1.73;;
17953;SDS011;9102;53.548;9.926;2024-01-16T12:53:06;12.95;;;2.28;;
17953;SDS011;9102;53.548;9.926;2024-01-16T12:55:35;5.68;;;1.80;;
17953;SDS011;9102;53.548;9.926;2024-01-16T12:58:13;5.68;;;1.80;;
17953;SDS011;9102;53.548;9.926;2024-01-16T13:00:41;8.93;;;2.00;;
17953;SDS011;9102;53.548;9.926;2024-01-16T13:03:08;6.18;;;1.92;;
17953;SDS011;9102;53.548;9.926;2024-01-16T13:05:43;10.18;;;2.25;;
17953;SDS011;9102;53.548;9.926;2024-01-16T13:08:17;7.82;;;2.20;;
17953;SDS011;9102;53.548;9.926;2024-01-16T13:10:44;35.47;;;10.63;;
17953;SDS011;9102;53.548;9.926;2024-01-16T13:13:11;29.30;;;8.25;;
17953;SDS011;9102;53.548;9.926;2024-01-16T13:15:39;9.02;;;2.95;;
17953;SDS011;9102;53.548;9.926;2024-01-16T13:18:06;8.55;;;3.53;;
17953;SDS011;9102;53.548;9.926;2024-01-16T13:20:45;7.65;;;3.33;;
17953;SDS011;9102;53.548;9.926;2024-01-16T13:23:12;10.52;;;2.40;;
17953;SDS011;9102;53.548;9.926;2024-01-16T13:25:41;5.53;;;2.50;;
17953;SDS011;9102;53.548;9.926;2024-01-16T13:28:09;10.40;;;3.08;;
17953;SDS011;9102;53.548;9.926;2024-01-16T13:30:36;5.10;;;2.13;;
17953;SDS011;9102;53.548;9.926;2024-01-16T13:33:03;9.57;;;4.25;;
17953;SDS011;9102;53.548;9.926;2024-01-16T13:35:34;10.10;;;3.50;;
17953;SDS011;9102;53.548;9.926;2024-01-16T13:38:02;10.50;;;3.28;;
17953;SDS011;9102;53.548;9.926;2024-01-16T13:40:30;11.70;;;3.33;;
17953;SDS011;9102;53.548;9.926;2024-01-16T13:42:56;6.53;;;3.50;;
17953;SDS011;9102;53.548;9.926;2024-01-16T13:45:23;9.88;;;3.63;;
17953;SDS011;9102;53.548;9.926;2024-01-16T13:47:50;8.05;;;3.65;;
17953;SDS011;9102;53.548;9.926;2024-01-16T13:50:17;13.60;;;3.47;;
17953;SDS011;9102;53.548;9.926;2024-01-16T13:52:45;11.90;;;3.90;;
17953;SDS011;9102;53.548;9.926;2024-01-16T13:55:13;14.48;;;3.60;;
17953;SDS011;9102;53.548;9.926;2024-01-16T13:57:40;8.90;;;3.80;;
17953;SDS011;9102;53.548;9.926;2024-01-16T14:00:08;11.75;;;5.20;;
17953;SDS011;9102;53.548;9.926;2024-01-16T14:02:38;12.25;;;4.95;;
17953;SDS011;9102;53.548;9.926;2024-01-16T14:05:06;13.60;;;5.70;;
17953;SDS011;9102;53.548;9.926;2024-01-16T14:07:35;16.58;;;5.55;;
17953;SDS011;9102;53.548;9.926;2024-01-16T14:10:04;17.65;;;7.63;;
17953;SDS011;9102;53.548;9.926;2024-01-16T14:12:32;11.00;;;6.88;;
17953;SDS011;9102;53.548;9.926;2024-01-16T14:14:59;16.83;;;6.90;;
17953;SDS011;9102;53.548;9.926;2024-01-16T14:17:28;18.55;;;6.20;;
17953;SDS011;9102;53.548;9.926;2024-01-16T14:19:54;20.05;;;8.10;;
17953;SDS011;9102;53.548;9.926;2024-01-16T14:22:21;13.85;;;6.82;;
17953;SDS011;9102;53.548;9.926;2024-01-16T14:24:48;12.45;;;6.00;;
17953;SDS011;9102;53.548;9.926;2024-01-16T14:27:17;13.35;;;5.60;;
17953;SDS011;9102;53.548;9.926;2024-01-16T14:29:44;17.63;;;5.65;;
17953;SDS011;9102;53.548;9.926;2024-01-16T14:32:11;13.23;;;5.30;;
17953;SDS011;9102;53.548;9.926;2024-01-16T14:34:37;12.73;;;5.80;;
17953;SDS011;9102;53.548;9.926;2024-01-16T14:37:04;13.25;;;5.90;;
17953;SDS011;9102;53.548;9.926;2024-01-16T14:39:31;15.82;;;6.55;;
17953;SDS011;9102;53.548;9.926;2024-01-16T14:42:00;15.88;;;6.70;;
17953;SDS011;9102;53.548;9.926;2024-01-16T14:44:28;10.45;;;5.35;;
17953;SDS011;9102;53.548;9.926;2024-01-16T14:46:55;17.88;;;5.57;;
17953;SDS011;9102;53.548;9.926;2024-01-16T14:49:22;12.32;;;5.78;;
17953;SDS011;9102;53.548;9.926;2024-01-16T14:51:49;11.07;;;4.53;;
17953;SDS011;9102;53.548;9.926;2024-01-16T14:54:16;38.78;;;10.88;;
17953;SDS011;9102;53.548;9.926;2024-01-16T14:56:43;13.18;;;5.55;;
17953;SDS011;9102;53.548;9.926;2024-01-16T14:59:10;20.13;;;4.55;;